Terminal Aerodrome Forecast
Issued by NWS Pendleton, OR

Home | Current Version | Previous Version | Text Only | Print | Product List | Glossary On
Versions: 1 2 3 4 5 6 7 8 9 10 11 12 13 14 15
000
FTUS46 KPDT 060534
TAFPDT
TAF
KPDT 060534Z 0606/0706 25013KT P6SM BKN070 OVC100
     FM061000 22006KT P6SM BKN070 OVC100
     FM061700 27009KT P6SM SCT070
     FM062100 34010KT P6SM VCSH SCT060 BKN090
     FM070200 29008KT P6SM BKN080 OVC150=

USA.gov is the U.S. government's official web portal to all federal, state and local government web resources and services.